Sikuliaq — WDG7520 — position and weather

sailwx.info

Track history (hours):
 
Tides and Currents Weather Stations Pressure Air Temp Water Temp Dewpoint Dewpoint Depression Visibility Wind Speed Wind Dir Waves Ship Positions

Oceanographic research ship Sikuliaq (USA)

Owner: Mackay Communications, Raleigh, NC. More information available from US FCC via Universal Licensing System.

Last reported at 2017-Aug-20 03:00 UTC. Time now 2017-Aug-20 03:46 UTC.
Position N 71°36' W 162°18'.

Length 79 m; draft 5.5 m.

Type: Other ship. MMSI: 338417000.

Wind from 120 at 1 knots

Barometer 1012.3 mb
Air temperature 4.6 ° C
Water temperature 5.1 ° C

Date/timePositionNaut miles runAvg speedWind from/ knotsBaromVisibWave heightAir tempDewpointWater temp
2017-Aug-20 03:00N 71°36' W 162°18'1111.2 120 / 11012.3 4.6 5.1
2017-Aug-20 02:00N 71°42' W 161°48'4 3.8 250 / 21012.2 4.4 4.7
2017-Aug-20 01:00N 71°42' W 161°36'6 6.3 280 / 21012.2 4.3 4.8
2017-Aug-20 00:00N 71°36' W 161°30'2 1.9 260 / 21011.8 4.4 4.4 4.9
2017-Aug-19 23:00N 71°36' W 161°24'2 1.9 240 / 21011.5 4.3 4.3 4.9
2017-Aug-19 22:00N 71°36' W 161°18'6 6.3 210 / 31011.3 4.2 4.2 5.3
2017-Aug-19 21:00N 71°30' W 161°12'0 0.0 240 / 11011.1 4.0 4.8
2017-Aug-19 20:00N 71°30' W 161°12'2 1.9 360 / 21010.8 4.0 4.9
2017-Aug-19 19:00N 71°30' W 161°06'6 6.3 010 / 41010.5 3.8 4.8
2017-Aug-19 18:00N 71°24' W 161°00'0 0.0 360 / 31010.2 4.1 4.8
2017-Aug-19 17:00N 71°24' W 161°00'2 1.9 010 / 81009.7 3.7 4.7
2017-Aug-19 16:00N 71°24' W 160°54'2 1.9 040 / 51009.4 4.2 3.9 5.2
2017-Aug-19 15:00N 71°24' W 160°48'6 6.3 100 / 71008.9 4.1 3.9 5.1
2017-Aug-19 14:00N 71°18' W 160°42'0 0.0 080 / 101008.5 4.1 3.8 5.1
2017-Aug-19 13:00N 71°18' W 160°42'2 1.9 080 / 101008.1 4.2 4.1 5.3
2017-Aug-19 12:00N 71°18' W 160°36'6 6.3 090 / 121007.6 4.2 3.9 5.8
2017-Aug-19 11:00N 71°12' W 160°30'2 1.9 070 / 141007.0 4.3 4.3 5.3
2017-Aug-19 10:00N 71°12' W 160°24'0 0.0 080 / 181006.4 4.4 4.0 5.6
2017-Aug-19 09:00N 71°12' W 160°24'6 6.3 090 / 171005.8 4.3 4.2 8.1
2017-Aug-19 08:00N 71°06' W 160°18'2 1.9 090 / 211005.1 4.1 8.4
2017-Aug-19 07:00N 71°06' W 160°12'2 1.9 090 / 191004.5 3.8 8.2
2017-Aug-19 06:00N 71°06' W 160°06'0 0.0 060 / 211003.7 3.5 7.6
2017-Aug-19 05:00N 71°06' W 160°06'6 6.3 060 / 191003.1 3.8 8.3
2017-Aug-19 04:00N 71°00' W 160°00'0 0.0 050 / 181002.4 4.3 8.3
2017-Aug-19 03:00N 71°00' W 160°00'0 0.0 040 / 141002.1 4.1 8.3
2017-Aug-19 02:00N 71°00' W 160°00'2 2.0 070 / 121001.8 3.8 8.2
2017-Aug-19 01:00N 71°00' W 159°54'0 0.0 060 / 61001.7 4.4 8.0
2017-Aug-19 00:00N 71°00' W 159°54'4 3.9 050 / 91001.3 3.7 8.0
2017-Aug-18 23:00N 71°00' W 160°06'7 7.2 060 / 101000.8 3.2 8.1
2017-Aug-18 22:00N 71°06' W 160°18'6 6.3 030 / 101000.5 2.8 7.3
2017-Aug-18 21:00N 71°12' W 160°24'2 1.9 040 / 91000.2 2.9 8.1
2017-Aug-18 20:00N 71°12' W 160°30'6 6.3 010 / 10999.8 2.6 6.7
2017-Aug-18 19:00N 71°18' W 160°36'4 3.8 030 / 5999.7 2.2 5.3
2017-Aug-18 18:00N 71°18' W 160°48'6 6.3 020 / 7999.5 2.3 5.2
2017-Aug-18 17:00N 71°24' W 160°54'7 7.1 030 / 11999.0 2.6 5.4
2017-Aug-18 16:00N 71°30' W 161°06'7 7.1 010 / 10999.2 2.8 5.3
2017-Aug-18 15:00N 71°36' W 161°18'4 3.8 040 / 5999.1 2.7 5.4
2017-Aug-18 14:00N 71°36' W 161°30'6 6.3 030 / 5998.8 3.0 4.8
2017-Aug-18 13:00N 71°42' W 161°36'7 7.1 350 / 3999.0 3.2 4.7
2017-Aug-18 12:00N 71°48' W 161°48'7 7.1 030 / 5998.9 3.4 4.6
2017-Aug-18 11:00N 71°54' W 162°00'4 3.7 060 / 4998.8 3.8 4.7
2017-Aug-18 10:00N 71°54' W 162°12'7 7.1 060 / 2998.8 4.2 4.4
2017-Aug-18 09:00N 72°00' W 162°24'6 5.6 100 / 2998.7 4.2 4.5
2017-Aug-18 08:00N 72°00' W 162°06'9 9.3 080 / 5998.7 4.2 4.7
2017-Aug-18 07:00N 72°00' W 161°36'9 9.3 070 / 5998.7 4.1 4.7
2017-Aug-18 06:00N 72°00' W 161°06'8 8.2 080 / 6998.7 3.9 4.6
2017-Aug-18 05:00N 71°54' W 160°48'2 1.9 090 / 7998.7 4.0 4.8
2017-Aug-18 04:00N 71°54' W 160°42'2 1.9 090 / 5998.6 4.1 4.6
2017-Aug-18 03:00N 71°54' W 160°36'4 3.7 080 / 6998.5 4.0 4.4
2017-Aug-18 02:00N 71°54' W 160°24'2 1.9 080 / 6998.6 4.0 4.3
2017-Aug-18 01:00N 71°54' W 160°18'2 1.9 090 / 4998.7 4.4 4.5
2017-Aug-18 00:00N 71°54' W 160°12'2 1.9 120 / 5998.9 4.2 4.5
2017-Aug-17 23:00N 71°54' W 160°06'6 6.3 110 / 4999.1 4.7 4.1
2017-Aug-17 22:00N 71°48' W 160°00'4 3.7 100 / 4998.8 4.5 3.8
2017-Aug-17 21:00N 71°48' W 159°48'2 1.9 110 / 3998.7 4.4 3.8
2017-Aug-17 20:00N 71°48' W 159°42'2 1.9 110 / 4998.7 4.5 3.8
2017-Aug-17 19:00N 71°48' W 159°36'2 1.9 090 / 4998.4 4.2 3.7
2017-Aug-17 18:00N 71°48' W 159°30'2 1.9 120 / 2998.3 4.4 3.7
2017-Aug-17 17:00N 71°48' W 159°24'2 1.9 120 / 3998.4 4.6 3.9
2017-Aug-17 16:00N 71°48' W 159°18'6 6.3 130 / 6998.1 4.4 4.1
2017-Aug-17 15:00N 71°42' W 159°12'2 1.9 130 / 8997.9 4.2 4.2
2017-Aug-17 14:00N 71°42' W 159°06'4 3.8 100 / 5997.5 4.2 4.1
2017-Aug-17 13:00N 71°42' W 158°54'2 1.9 120 / 8997.7 4.2 4.1
2017-Aug-17 12:00N 71°42' W 158°48'2 1.9 110 / 5997.5 4.3 4.4
2017-Aug-17 11:00N 71°42' W 158°42'2 1.9 110 / 6997.3 4.6 4.5
2017-Aug-17 10:00N 71°42' W 158°36'2 1.9 110 / 7997.2 4.8 4.5
2017-Aug-17 09:00N 71°42' W 158°30'7 7.1 110 / 7997.1 4.8 4.5
2017-Aug-17 08:00N 71°36' W 158°18'2 1.9 120 / 6996.9 5.2 4.5
2017-Aug-17 07:00N 71°36' W 158°12'2 1.9 110 / 9996.5 5.5 4.8
2017-Aug-17 06:00N 71°36' W 158°06'4 3.8 110 / 6996.3 5.6 4.7
2017-Aug-17 05:00N 71°36' W 157°54'2 1.9 110 / 10996.2 5.3 4.6
2017-Aug-17 04:00N 71°36' W 157°48'6 6.0 100 / 5996.0 5.3 4.5
2017-Aug-17 03:00N 71°30' W 157°48'2 1.9 120 / 16995.6 4.6 4.3
2017-Aug-17 02:00N 71°30' W 157°42'2 1.9 100 / 8995.4 5.3 4.3
2017-Aug-17 01:00N 71°30' W 157°36'6 6.3 110 / 8995.2 5.6 5.6 4.2
2017-Aug-17 00:00N 71°24' W 157°30'0 0.0 130 / 8995.3 7.0 5.4 6.1
2017-Aug-16 23:00N 71°24' W 157°30'2 1.9 130 / 14995.1 6.2 5.1 6.6
2017-Aug-16 22:00N 71°24' W 157°24'6 6.3 130 / 16994.9 5.8 4.1 7.3
2017-Aug-16 21:00N 71°18' W 157°18'2 1.9 130 / 17994.7 4.8 3.6 7.0
2017-Aug-16 20:00N 71°18' W 157°12'6 6.3 140 / 17994.7 4.2 3.2 5.1
2017-Aug-16 19:00N 71°12' W 157°06'6 6.3 150 / 16994.7 4.0 2.8 3.5
2017-Aug-16 18:00N 71°18' W 157°12'0 0.0 140 / 17994.5 3.6 2.7 3.1
2017-Aug-16 17:00N 71°18' W 157°12'78 2.2 160 / 9994.6 2.7 2.6
2017-Aug-15 05:00N 72°00' W 160°42'8 8.2 120 / 121011.8 -0.4 4.7
2017-Aug-15 04:00N 72°06' W 160°24'1414.1 120 / 61012.9 -0.5 4.4
2017-Aug-15 03:00N 72°18' W 160°00'8 8.1 090 / 51013.9 -0.7 3.6
2017-Aug-15 02:00N 72°24' W 159°42'9 9.4 070 / 41014.8 -1.1 3.3
2017-Aug-15 01:00N 72°30' W 159°18'6 6.3 070 / 31015.7 -1.0 3.0
2017-Aug-15 00:00N 72°36' W 159°12'6 6.3 080 / 51016.3 -1.0 3.3
2017-Aug-14 23:00N 72°30' W 159°18'6 6.3 360 / 41016.7 -1.0 3.2
2017-Aug-14 22:00N 72°24' W 159°24'6 6.3 100 / 71017.2 -0.9 2.8
2017-Aug-14 21:00N 72°18' W 159°30'4 3.6 100 / 51017.7 -0.9 3.1
2017-Aug-14 20:00N 72°18' W 159°42'5 5.5 040 / 41018.0 -1.0 3.3
2017-Aug-14 19:00N 72°18' W 160°00'5 5.5 020 / 51018.4 -0.7 3.3
2017-Aug-14 18:00N 72°18' W 160°18'7 7.0 100 / 61018.8 -0.7 3.3
2017-Aug-14 17:00N 72°12' W 160°30'7 7.3 080 / 51019.2 -0.4 3.9
2017-Aug-14 16:00N 72°12' W 160°54'4 3.7 060 / 61019.6 -0.4 4.4
2017-Aug-14 15:00N 72°12' W 161°06'4 3.7 110 / 71019.8 -0.3 4.4
2017-Aug-14 14:00N 72°12' W 161°18'9 9.5 050 / 61019.9 -0.3 4.4
2017-Aug-14 13:00N 72°06' W 161°42'2 1.8 070 / 91019.9 -0.1 4.5
2017-Aug-14 12:00N 72°06' W 161°48'7 7.4 050 / 71020.2 0.1 4.2
2017-Aug-14 11:00N 72°06' W 162°12'6 6.3 090 / 81020.7 0.1 4.3
2017-Aug-14 10:00N 72°00' W 162°18'7 7.1 080 / 111020.7 0.3 3.9
2017-Aug-14 09:00N 71°54' W 162°30'1212.1 070 / 161020.5 0.7 4.3
2017-Aug-14 08:00N 71°42' W 162°36'7 7.1 090 / 151020.5 1.0 1.0 4.8
2017-Aug-14 07:00N 71°36' W 162°48'1212.2 060 / 171020.4 1.3 0.3 5.2
2017-Aug-14 06:00N 71°24' W 162°54'6 6.0 070 / 151020.0 1.4 0.4 5.4
2017-Aug-14 05:00N 71°18' W 162°54'0 0.0 070 / 191019.6 1.3-0.5 5.3
2017-Aug-14 04:00N 71°18' W 162°54'2 1.9 060 / 181019.4 1.9 0.6 5.3
2017-Aug-14 03:00N 71°18' W 162°48'2 1.9 050 / 181019.2 2.1 0.6 5.6
2017-Aug-14 02:00N 71°18' W 162°42'6 6.3 050 / 181018.8 1.7 0.8 5.5
2017-Aug-14 01:00N 71°12' W 162°36'2 1.9 060 / 181018.7 2.0 1.0 5.5
2017-Aug-14 00:00N 71°12' W 162°30'2 1.9 050 / 201018.7 1.7-0.1 5.5
2017-Aug-13 23:00N 71°12' W 162°24'6 6.0 050 / 201018.5 1.7-0.1 5.6
2017-Aug-13 22:00N 71°06' W 162°24'2 1.9 040 / 191018.4 1.6-0.1 5.7
2017-Aug-13 21:00N 71°06' W 162°18'2 1.9 050 / 211017.9 1.7-0.0 5.6
2017-Aug-13 20:00N 71°06' W 162°12'2 1.9 070 / 221017.6 1.7 0.1 5.6
2017-Aug-13 19:00N 71°06' W 162°06'6 6.0 050 / 191017.3 1.5 0.9 5.6
2017-Aug-13 18:00N 71°00' W 162°06'2 2.0 050 / 191016.7 2.2 0.9 5.7
2017-Aug-13 17:00N 71°00' W 162°00'2 2.0 050 / 181016.3 2.0 2.0 5.8
2017-Aug-13 16:00N 71°00' W 161°54'2 2.0 050 / 191015.6 2.2 6.0
2017-Aug-13 15:00N 71°00' W 161°48'6 6.3 060 / 191015.1 2.3 1.0 6.4
2017-Aug-13 14:00N 70°54' W 161°42'0 0.0 050 / 181014.9 2.2 1.4 6.3
2017-Aug-13 13:00N 70°54' W 161°42'2 2.0 050 / 171014.8 2.0 1.7 6.5
2017-Aug-13 12:00N 70°54' W 161°36'6 6.3 040 / 141014.6 1.8 1.8 6.5
2017-Aug-13 11:00N 70°48' W 161°30'2 2.0 050 / 171014.4 1.3 6.7
2017-Aug-13 10:00N 70°48' W 161°24'2 2.0 050 / 211014.0 1.7 1.7 6.7
2017-Aug-13 09:00N 70°48' W 161°18'2 2.0 050 / 181013.7 1.8 1.5 6.6
2017-Aug-13 08:00N 70°48' W 161°12'6 6.3 050 / 211013.2 2.1 0.9 7.7
2017-Aug-13 07:00N 70°42' W 161°06'2 2.0 070 / 181012.8 2.3 0.3 8.1
2017-Aug-13 06:00N 70°42' W 161°00'0 0.0 040 / 201012.4 2.3 0.9 7.7
2017-Aug-13 05:00N 70°42' W 161°00'8 8.4 050 / 171012.4 2.6 1.0 8.1
2017-Aug-13 04:00N 70°48' W 160°42'8 8.4 040 / 161012.4 2.7 1.2 8.0
2017-Aug-13 03:00N 70°54' W 160°24'10 9.9 040 / 141012.3 2.3 1.0 6.7
2017-Aug-13 02:00N 71°00' W 160°00'0 0.0 040 / 161011.9 2.0 0.1 7.3
2017-Aug-13 01:00N 71°00' W 160°00'2 2.0 030 / 191011.4 2.0 0.3 5.9
2017-Aug-13 00:00N 71°00' W 160°06'7 7.2 040 / 141011.8 1.8-0.3 5.7
2017-Aug-12 23:00N 71°06' W 160°18'6 6.3 030 / 181011.4 1.7 0.3 5.0
2017-Aug-12 22:00N 71°12' W 160°24'0 0.0 030 / 181011.2 1.7 0.6 5.0
2017-Aug-12 21:00N 71°12' W 160°24'4 3.9 030 / 191011.2 1.1 5.1
2017-Aug-12 20:00N 71°12' W 160°36'6 6.3 040 / 151011.0 1.1 5.0
2017-Aug-12 19:00N 71°18' W 160°42'2 1.9 040 / 161010.8 1.1 1.1 5.0
2017-Aug-12 18:00N 71°18' W 160°48'6 6.3 030 / 161010.3 1.1 1.0 5.0
2017-Aug-12 17:00N 71°24' W 160°54'7 7.1 020 / 161009.9 0.8 5.1
2017-Aug-12 16:00N 71°30' W 161°06'2 1.9 030 / 171009.5 1.0 0.4 5.0
2017-Aug-12 15:00N 71°30' W 161°12'7 7.1 030 / 141009.4 1.2 0.1 5.0
2017-Aug-12 14:00N 71°36' W 161°24'2 1.9 1009.2 1.2 0.6 5.0
2017-Aug-12 13:00N 71°36' W 161°30'0 0.0 020 / 161008.9 1.3 0.5 4.9
2017-Aug-12 12:00N 71°36' W 161°30'7 7.1 020 / 141008.6 1.4 0.9 4.5
2017-Aug-12 11:00N 71°42' W 161°42'6 6.3 010 / 161008.7 0.7 4.2
2017-Aug-12 10:00N 71°48' W 161°48'4 3.7 010 / 121008.5 1.3 0.1 4.2
2017-Aug-12 09:00N 71°48' W 162°00'7 7.1 1008.3 1.1 1.0 4.1
2017-Aug-12 08:00N 71°54' W 162°12'6 6.3 360 / 111008.1 1.3 0.1 3.9
2017-Aug-12 07:00N 72°00' W 162°18'2 1.9 360 / 141007.6 1.5-0.0 4.2
2017-Aug-12 06:00N 72°00' W 162°24'0 0.0 350 / 141007.2 1.8 0.7 4.5
2017-Aug-12 05:00N 72°00' W 162°24'8 8.2 360 / 121006.7 2.0 0.4 4.3
2017-Aug-12 04:00N 71°54' W 162°06'8 8.2 030 / 111006.4 1.1 0.7 4.0
2017-Aug-12 03:00N 71°48' W 161°48'7 7.1 010 / 141006.0 1.3 0.5 4.4
2017-Aug-12 02:00N 71°42' W 161°36'6 6.3 350 / 151005.6 1.9-0.2 4.5
2017-Aug-12 01:00N 71°36' W 161°30'7 2.4 1005.7 0.7 4.8
2017-Aug-11 22:00N 71°30' W 161°18'2 1.9 350 / 121005.3 1.7-0.1 5.1
2017-Aug-11 21:00N 71°30' W 161°12'2 1.9 010 / 141004.9 1.5-0.0 5.2
2017-Aug-11 20:00N 71°30' W 161°06'6 6.0 340 / 151004.5 1.6 0.5 5.2
2017-Aug-11 19:00N 71°24' W 161°06'2 1.9 340 / 131003.8 1.3 0.1 5.2
2017-Aug-11 18:00N 71°24' W 161°00'2 1.9 340 / 131003.5 1.3-0.7 5.2
2017-Aug-11 17:00N 71°24' W 160°54'0 0.0 330 / 161002.9 1.6-0.2 5.2
2017-Aug-11 16:00N 71°24' W 160°54'6 6.3 010 / 161002.3 1.7 0.9 5.2
2017-Aug-11 15:00N 71°18' W 160°48'2 1.9 360 / 181001.8 1.2 1.0 5.4
2017-Aug-11 14:00N 71°18' W 160°42'2 1.9 350 / 181001.4 1.7 0.8 5.3
2017-Aug-11 13:00N 71°18' W 160°36'0 0.0 350 / 231000.8 1.3 1.1 5.4
2017-Aug-11 12:00N 71°18' W 160°36'6 6.3 350 / 201000.2 2.0 5.5
2017-Aug-11 11:00N 71°12' W 160°30'2 1.9 350 / 23999.2 2.5 5.6
2017-Aug-11 10:00N 71°12' W 160°24'0 0.0 360 / 22997.8 3.8 5.6
2017-Aug-11 09:00N 71°12' W 160°24'6 6.3 340 / 24996.5 4.5 5.6
2017-Aug-11 08:00N 71°06' W 160°18'2 1.9 270 / 17995.3 6.1 5.7
2017-Aug-11 07:00N 71°06' W 160°12'2 1.9 260 / 18994.8 6.8 5.8
2017-Aug-11 06:00N 71°06' W 160°06'6 6.0 230 / 26994.3 8.1 5.9
2017-Aug-11 05:00N 71°00' W 160°06'2 2.0 220 / 27994.5 8.5 5.9
2017-Aug-11 04:00N 71°00' W 160°00'2 2.0 210 / 26995.1 8.9 8.9 5.9
2017-Aug-11 03:00N 71°00' W 159°54'0 0.0 210 / 26996.1 9.1 8.6 6.1
2017-Aug-11 02:00N 71°00' W 159°54'6 5.9 210 / 22997.5 9.0 8.3 6.3
2017-Aug-11 01:00N 71°00' W 159°36'6 5.9 210 / 20998.5 8.5 7.0 6.1
2017-Aug-11 00:00N 71°00' W 159°18'8 8.4 210 / 18999.7 7.9 5.9 6.3
2017-Aug-10 23:00N 71°06' W 159°00'6 5.8 200 / 221000.8 7.3 4.9 7.0
2017-Aug-10 22:00N 71°06' W 158°42'6 5.8 210 / 201002.2 6.7 5.0 7.5
2017-Aug-10 21:00N 71°06' W 158°24'8 8.4 210 / 201002.6 6.2 4.8 7.4
2017-Aug-10 20:00N 71°12' W 158°06'8 7.7 190 / 211003.1 6.1 4.6 7.1
2017-Aug-10 19:00N 71°12' W 157°42'8 7.7 210 / 161004.8 5.9 4.7 6.0
2017-Aug-10 18:00N 71°12' W 157°18'6 6.3 190 / 81005.7 5.7 4.3 6.1
2017-Aug-10 17:00N 71°18' W 157°12'0 0.0 230 / 71006.4 5.4 3.8 8.1
2017-Aug-10 16:00N 71°18' W 157°12'2 1.9 270 / 91007.1 5.0 3.8 8.1
2017-Aug-10 15:00N 71°18' W 157°18'0 0.0 260 / 101007.6 4.7 3.8 5.4
2017-Aug-10 14:00N 71°18' W 157°18'6 6.3 260 / 121008.0 4.5 3.5 5.4
2017-Aug-10 13:00N 71°24' W 157°24'0 0.0 260 / 151008.6 4.4 3.2 5.0
2017-Aug-10 12:00N 71°24' W 157°24'2 1.9 260 / 171009.2 4.3 3.1 5.1
2017-Aug-10 11:00N 71°24' W 157°30'6 6.3 250 / 171009.5 4.1 3.4 4.9
2017-Aug-10 10:00N 71°30' W 157°36'2 1.9 260 / 181009.7 3.9 2.9 5.0
2017-Aug-10 09:00N 71°30' W 157°42'2 1.9 260 / 151010.4 3.7 2.8 5.0
2017-Aug-10 08:00N 71°30' W 157°48'6 6.0 280 / 161010.5 3.7 1.8 4.9
2017-Aug-10 07:00N 71°36' W 157°48'0 0.0 270 / 181010.5 3.2 2.1 4.8
2017-Aug-10 06:00N 71°36' W 157°48'0 0.0 260 / 201010.8 3.1 2.4 4.8
2017-Aug-10 05:00N 71°36' W 157°48'0 0.0 270 / 161011.0 3.2 2.3 4.8
2017-Aug-10 04:00N 71°36' W 157°48'6 6.3 270 / 181011.0 3.2 0.3 5.0
2017-Aug-10 03:00N 71°30' W 157°42'   260 / 161011.0 3.2 0.9 4.9
Track history (hours):
 
Tides and Currents Weather Stations Pressure Air Temp Water Temp Dewpoint Dewpoint Depression Visibility Wind Speed Wind Dir Waves Ship Positions

Oceanographic research ship Sikuliaq (USA)

Owner: Mackay Communications, Raleigh, NC. More information available from US FCC via Universal Licensing System.

Last reported at 2017-Aug-20 03:00 UTC. Time now 2017-Aug-20 03:46 UTC.
Position N 71°36' W 162°18'.

Length 79 m; draft 5.5 m.

Type: Other ship. MMSI: 338417000.

Wind from 120 at 1 knots

Barometer 1012.3 mb
Air temperature 4.6 ° C
Water temperature 5.1 ° C

Date/timePositionNaut miles runAvg speedWind from/ knotsBaromVisibWave heightAir tempDewpointWater temp
2017-Aug-20 03:00N 71°36' W 162°18'1111.2 120 / 11012.3 4.6 5.1
2017-Aug-20 02:00N 71°42' W 161°48'4 3.8 250 / 21012.2 4.4 4.7
2017-Aug-20 01:00N 71°42' W 161°36'6 6.3 280 / 21012.2 4.3 4.8
2017-Aug-20 00:00N 71°36' W 161°30'2 1.9 260 / 21011.8 4.4 4.4 4.9
2017-Aug-19 23:00N 71°36' W 161°24'2 1.9 240 / 21011.5 4.3 4.3 4.9
2017-Aug-19 22:00N 71°36' W 161°18'6 6.3 210 / 31011.3 4.2 4.2 5.3
2017-Aug-19 21:00N 71°30' W 161°12'0 0.0 240 / 11011.1 4.0 4.8
2017-Aug-19 20:00N 71°30' W 161°12'2 1.9 360 / 21010.8 4.0 4.9
2017-Aug-19 19:00N 71°30' W 161°06'6 6.3 010 / 41010.5 3.8 4.8
2017-Aug-19 18:00N 71°24' W 161°00'0 0.0 360 / 31010.2 4.1 4.8
2017-Aug-19 17:00N 71°24' W 161°00'2 1.9 010 / 81009.7 3.7 4.7
2017-Aug-19 16:00N 71°24' W 160°54'2 1.9 040 / 51009.4 4.2 3.9 5.2
2017-Aug-19 15:00N 71°24' W 160°48'6 6.3 100 / 71008.9 4.1 3.9 5.1
2017-Aug-19 14:00N 71°18' W 160°42'0 0.0 080 / 101008.5 4.1 3.8 5.1
2017-Aug-19 13:00N 71°18' W 160°42'2 1.9 080 / 101008.1 4.2 4.1 5.3
2017-Aug-19 12:00N 71°18' W 160°36'6 6.3 090 / 121007.6 4.2 3.9 5.8
2017-Aug-19 11:00N 71°12' W 160°30'2 1.9 070 / 141007.0 4.3 4.3 5.3
2017-Aug-19 10:00N 71°12' W 160°24'0 0.0 080 / 181006.4 4.4 4.0 5.6
2017-Aug-19 09:00N 71°12' W 160°24'6 6.3 090 / 171005.8 4.3 4.2 8.1
2017-Aug-19 08:00N 71°06' W 160°18'2 1.9 090 / 211005.1 4.1 8.4
2017-Aug-19 07:00N 71°06' W 160°12'2 1.9 090 / 191004.5 3.8 8.2
2017-Aug-19 06:00N 71°06' W 160°06'0 0.0 060 / 211003.7 3.5 7.6
2017-Aug-19 05:00N 71°06' W 160°06'6 6.3 060 / 191003.1 3.8 8.3
2017-Aug-19 04:00N 71°00' W 160°00'0 0.0 050 / 181002.4 4.3 8.3
2017-Aug-19 03:00N 71°00' W 160°00'0 0.0 040 / 141002.1 4.1 8.3
2017-Aug-19 02:00N 71°00' W 160°00'2 2.0 070 / 121001.8 3.8 8.2
2017-Aug-19 01:00N 71°00' W 159°54'0 0.0 060 / 61001.7 4.4 8.0
2017-Aug-19 00:00N 71°00' W 159°54'4 3.9 050 / 91001.3 3.7 8.0
2017-Aug-18 23:00N 71°00' W 160°06'7 7.2 060 / 101000.8 3.2 8.1
2017-Aug-18 22:00N 71°06' W 160°18'6 6.3 030 / 101000.5 2.8 7.3
2017-Aug-18 21:00N 71°12' W 160°24'2 1.9 040 / 91000.2 2.9 8.1
2017-Aug-18 20:00N 71°12' W 160°30'6 6.3 010 / 10999.8 2.6 6.7
2017-Aug-18 19:00N 71°18' W 160°36'4 3.8 030 / 5999.7 2.2 5.3
2017-Aug-18 18:00N 71°18' W 160°48'6 6.3 020 / 7999.5 2.3 5.2
2017-Aug-18 17:00N 71°24' W 160°54'7 7.1 030 / 11999.0 2.6 5.4
2017-Aug-18 16:00N 71°30' W 161°06'7 7.1 010 / 10999.2 2.8 5.3
2017-Aug-18 15:00N 71°36' W 161°18'4 3.8 040 / 5999.1 2.7 5.4
2017-Aug-18 14:00N 71°36' W 161°30'6 6.3 030 / 5998.8 3.0 4.8
2017-Aug-18 13:00N 71°42' W 161°36'7 7.1 350 / 3999.0 3.2 4.7
2017-Aug-18 12:00N 71°48' W 161°48'7 7.1 030 / 5998.9 3.4 4.6
2017-Aug-18 11:00N 71°54' W 162°00'4 3.7 060 / 4998.8 3.8 4.7
2017-Aug-18 10:00N 71°54' W 162°12'7 7.1 060 / 2998.8 4.2 4.4
2017-Aug-18 09:00N 72°00' W 162°24'6 5.6 100 / 2998.7 4.2 4.5
2017-Aug-18 08:00N 72°00' W 162°06'9 9.3 080 / 5998.7 4.2 4.7
2017-Aug-18 07:00N 72°00' W 161°36'9 9.3 070 / 5998.7 4.1 4.7
2017-Aug-18 06:00N 72°00' W 161°06'8 8.2 080 / 6998.7 3.9 4.6
2017-Aug-18 05:00N 71°54' W 160°48'2 1.9 090 / 7998.7 4.0 4.8
2017-Aug-18 04:00N 71°54' W 160°42'2 1.9 090 / 5998.6 4.1 4.6
2017-Aug-18 03:00N 71°54' W 160°36'4 3.7 080 / 6998.5 4.0 4.4
2017-Aug-18 02:00N 71°54' W 160°24'2 1.9 080 / 6998.6 4.0 4.3
2017-Aug-18 01:00N 71°54' W 160°18'2 1.9 090 / 4998.7 4.4 4.5
2017-Aug-18 00:00N 71°54' W 160°12'2 1.9 120 / 5998.9 4.2 4.5
2017-Aug-17 23:00N 71°54' W 160°06'6 6.3 110 / 4999.1 4.7 4.1
2017-Aug-17 22:00N 71°48' W 160°00'4 3.7 100 / 4998.8 4.5 3.8
2017-Aug-17 21:00N 71°48' W 159°48'2 1.9 110 / 3998.7 4.4 3.8
2017-Aug-17 20:00N 71°48' W 159°42'2 1.9 110 / 4998.7 4.5 3.8
2017-Aug-17 19:00N 71°48' W 159°36'2 1.9 090 / 4998.4 4.2 3.7
2017-Aug-17 18:00N 71°48' W 159°30'2 1.9 120 / 2998.3 4.4 3.7
2017-Aug-17 17:00N 71°48' W 159°24'2 1.9 120 / 3998.4 4.6 3.9
2017-Aug-17 16:00N 71°48' W 159°18'6 6.3 130 / 6998.1 4.4 4.1
2017-Aug-17 15:00N 71°42' W 159°12'2 1.9 130 / 8997.9 4.2 4.2
2017-Aug-17 14:00N 71°42' W 159°06'4 3.8 100 / 5997.5 4.2 4.1
2017-Aug-17 13:00N 71°42' W 158°54'2 1.9 120 / 8997.7 4.2 4.1
2017-Aug-17 12:00N 71°42' W 158°48'2 1.9 110 / 5997.5 4.3 4.4
2017-Aug-17 11:00N 71°42' W 158°42'2 1.9 110 / 6997.3 4.6 4.5
2017-Aug-17 10:00N 71°42' W 158°36'2 1.9 110 / 7997.2 4.8 4.5
2017-Aug-17 09:00N 71°42' W 158°30'7 7.1 110 / 7997.1 4.8 4.5
2017-Aug-17 08:00N 71°36' W 158°18'2 1.9 120 / 6996.9 5.2 4.5
2017-Aug-17 07:00N 71°36' W 158°12'2 1.9 110 / 9996.5 5.5 4.8
2017-Aug-17 06:00N 71°36' W 158°06'4 3.8 110 / 6996.3 5.6 4.7
2017-Aug-17 05:00N 71°36' W 157°54'2 1.9 110 / 10996.2 5.3 4.6
2017-Aug-17 04:00N 71°36' W 157°48'6 6.0 100 / 5996.0 5.3 4.5
2017-Aug-17 03:00N 71°30' W 157°48'2 1.9 120 / 16995.6 4.6 4.3
2017-Aug-17 02:00N 71°30' W 157°42'2 1.9 100 / 8995.4 5.3 4.3
2017-Aug-17 01:00N 71°30' W 157°36'6 6.3 110 / 8995.2 5.6 5.6 4.2
2017-Aug-17 00:00N 71°24' W 157°30'0 0.0 130 / 8995.3 7.0 5.4 6.1
2017-Aug-16 23:00N 71°24' W 157°30'2 1.9 130 / 14995.1 6.2 5.1 6.6
2017-Aug-16 22:00N 71°24' W 157°24'6 6.3 130 / 16994.9 5.8 4.1 7.3
2017-Aug-16 21:00N 71°18' W 157°18'2 1.9 130 / 17994.7 4.8 3.6 7.0
2017-Aug-16 20:00N 71°18' W 157°12'6 6.3 140 / 17994.7 4.2 3.2 5.1
2017-Aug-16 19:00N 71°12' W 157°06'6 6.3 150 / 16994.7 4.0 2.8 3.5
2017-Aug-16 18:00N 71°18' W 157°12'0 0.0 140 / 17994.5 3.6 2.7 3.1
2017-Aug-16 17:00N 71°18' W 157°12'78 2.2 160 / 9994.6 2.7 2.6
2017-Aug-15 05:00N 72°00' W 160°42'8 8.2 120 / 121011.8 -0.4 4.7
2017-Aug-15 04:00N 72°06' W 160°24'1414.1 120 / 61012.9 -0.5 4.4
2017-Aug-15 03:00N 72°18' W 160°00'8 8.1 090 / 51013.9 -0.7 3.6
2017-Aug-15 02:00N 72°24' W 159°42'9 9.4 070 / 41014.8 -1.1 3.3
2017-Aug-15 01:00N 72°30' W 159°18'6 6.3 070 / 31015.7 -1.0 3.0
2017-Aug-15 00:00N 72°36' W 159°12'6 6.3 080 / 51016.3 -1.0 3.3
2017-Aug-14 23:00N 72°30' W 159°18'6 6.3 360 / 41016.7 -1.0 3.2
2017-Aug-14 22:00N 72°24' W 159°24'6 6.3 100 / 71017.2 -0.9 2.8
2017-Aug-14 21:00N 72°18' W 159°30'4 3.6 100 / 51017.7 -0.9 3.1
2017-Aug-14 20:00N 72°18' W 159°42'5 5.5 040 / 41018.0 -1.0 3.3
2017-Aug-14 19:00N 72°18' W 160°00'5 5.5 020 / 51018.4 -0.7 3.3
2017-Aug-14 18:00N 72°18' W 160°18'7 7.0 100 / 61018.8 -0.7 3.3
2017-Aug-14 17:00N 72°12' W 160°30'7 7.3 080 / 51019.2 -0.4 3.9
2017-Aug-14 16:00N 72°12' W 160°54'4 3.7 060 / 61019.6 -0.4 4.4
2017-Aug-14 15:00N 72°12' W 161°06'4 3.7 110 / 71019.8 -0.3 4.4
2017-Aug-14 14:00N 72°12' W 161°18'9 9.5 050 / 61019.9 -0.3 4.4
2017-Aug-14 13:00N 72°06' W 161°42'2 1.8 070 / 91019.9 -0.1 4.5
2017-Aug-14 12:00N 72°06' W 161°48'7 7.4 050 / 71020.2 0.1 4.2
2017-Aug-14 11:00N 72°06' W 162°12'6 6.3 090 / 81020.7 0.1 4.3
2017-Aug-14 10:00N 72°00' W 162°18'7 7.1 080 / 111020.7 0.3 3.9
2017-Aug-14 09:00N 71°54' W 162°30'1212.1 070 / 161020.5 0.7 4.3
2017-Aug-14 08:00N 71°42' W 162°36'7 7.1 090 / 151020.5 1.0 1.0 4.8
2017-Aug-14 07:00N 71°36' W 162°48'1212.2 060 / 171020.4 1.3 0.3 5.2
2017-Aug-14 06:00N 71°24' W 162°54'6 6.0 070 / 151020.0 1.4 0.4 5.4
2017-Aug-14 05:00N 71°18' W 162°54'0 0.0 070 / 191019.6 1.3-0.5 5.3
2017-Aug-14 04:00N 71°18' W 162°54'2 1.9 060 / 181019.4 1.9 0.6 5.3
2017-Aug-14 03:00N 71°18' W 162°48'2 1.9 050 / 181019.2 2.1 0.6 5.6
2017-Aug-14 02:00N 71°18' W 162°42'6 6.3 050 / 181018.8 1.7 0.8 5.5
2017-Aug-14 01:00N 71°12' W 162°36'2 1.9 060 / 181018.7 2.0 1.0 5.5
2017-Aug-14 00:00N 71°12' W 162°30'2 1.9 050 / 201018.7 1.7-0.1 5.5
2017-Aug-13 23:00N 71°12' W 162°24'6 6.0 050 / 201018.5 1.7-0.1 5.6
2017-Aug-13 22:00N 71°06' W 162°24'2 1.9 040 / 191018.4 1.6-0.1 5.7
2017-Aug-13 21:00N 71°06' W 162°18'2 1.9 050 / 211017.9 1.7-0.0 5.6
2017-Aug-13 20:00N 71°06' W 162°12'2 1.9 070 / 221017.6 1.7 0.1 5.6
2017-Aug-13 19:00N 71°06' W 162°06'6 6.0 050 / 191017.3 1.5 0.9 5.6
2017-Aug-13 18:00N 71°00' W 162°06'2 2.0 050 / 191016.7 2.2 0.9 5.7
2017-Aug-13 17:00N 71°00' W 162°00'2 2.0 050 / 181016.3 2.0 2.0 5.8
2017-Aug-13 16:00N 71°00' W 161°54'2 2.0 050 / 191015.6 2.2 6.0
2017-Aug-13 15:00N 71°00' W 161°48'6 6.3 060 / 191015.1 2.3 1.0 6.4
2017-Aug-13 14:00N 70°54' W 161°42'0 0.0 050 / 181014.9 2.2 1.4 6.3
2017-Aug-13 13:00N 70°54' W 161°42'2 2.0 050 / 171014.8 2.0 1.7 6.5
2017-Aug-13 12:00N 70°54' W 161°36'6 6.3 040 / 141014.6 1.8 1.8 6.5
2017-Aug-13 11:00N 70°48' W 161°30'2 2.0 050 / 171014.4 1.3 6.7
2017-Aug-13 10:00N 70°48' W 161°24'2 2.0 050 / 211014.0 1.7 1.7 6.7
2017-Aug-13 09:00N 70°48' W 161°18'2 2.0 050 / 181013.7 1.8 1.5 6.6
2017-Aug-13 08:00N 70°48' W 161°12'6 6.3 050 / 211013.2 2.1 0.9 7.7
2017-Aug-13 07:00N 70°42' W 161°06'2 2.0 070 / 181012.8 2.3 0.3 8.1
2017-Aug-13 06:00N 70°42' W 161°00'0 0.0 040 / 201012.4 2.3 0.9 7.7
2017-Aug-13 05:00N 70°42' W 161°00'8 8.4 050 / 171012.4 2.6 1.0 8.1
2017-Aug-13 04:00N 70°48' W 160°42'8 8.4 040 / 161012.4 2.7 1.2 8.0
2017-Aug-13 03:00N 70°54' W 160°24'10 9.9 040 / 141012.3 2.3 1.0 6.7
2017-Aug-13 02:00N 71°00' W 160°00'0 0.0 040 / 161011.9 2.0 0.1 7.3
2017-Aug-13 01:00N 71°00' W 160°00'2 2.0 030 / 191011.4 2.0 0.3 5.9
2017-Aug-13 00:00N 71°00' W 160°06'7 7.2 040 / 141011.8 1.8-0.3 5.7
2017-Aug-12 23:00N 71°06' W 160°18'6 6.3 030 / 181011.4 1.7 0.3 5.0
2017-Aug-12 22:00N 71°12' W 160°24'0 0.0 030 / 181011.2 1.7 0.6 5.0
2017-Aug-12 21:00N 71°12' W 160°24'4 3.9 030 / 191011.2 1.1 5.1
2017-Aug-12 20:00N 71°12' W 160°36'6 6.3 040 / 151011.0 1.1 5.0
2017-Aug-12 19:00N 71°18' W 160°42'2 1.9 040 / 161010.8 1.1 1.1 5.0
2017-Aug-12 18:00N 71°18' W 160°48'6 6.3 030 / 161010.3 1.1 1.0 5.0
2017-Aug-12 17:00N 71°24' W 160°54'7 7.1 020 / 161009.9 0.8 5.1
2017-Aug-12 16:00N 71°30' W 161°06'2 1.9 030 / 171009.5 1.0 0.4 5.0
2017-Aug-12 15:00N 71°30' W 161°12'7 7.1 030 / 141009.4 1.2 0.1 5.0
2017-Aug-12 14:00N 71°36' W 161°24'2 1.9 1009.2 1.2 0.6 5.0
2017-Aug-12 13:00N 71°36' W 161°30'0 0.0 020 / 161008.9 1.3 0.5 4.9
2017-Aug-12 12:00N 71°36' W 161°30'7 7.1 020 / 141008.6 1.4 0.9 4.5
2017-Aug-12 11:00N 71°42' W 161°42'6 6.3 010 / 161008.7 0.7 4.2
2017-Aug-12 10:00N 71°48' W 161°48'4 3.7 010 / 121008.5 1.3 0.1 4.2
2017-Aug-12 09:00N 71°48' W 162°00'7 7.1 1008.3 1.1 1.0 4.1
2017-Aug-12 08:00N 71°54' W 162°12'6 6.3 360 / 111008.1 1.3 0.1 3.9
2017-Aug-12 07:00N 72°00' W 162°18'2 1.9 360 / 141007.6 1.5-0.0 4.2
2017-Aug-12 06:00N 72°00' W 162°24'0 0.0 350 / 141007.2 1.8 0.7 4.5
2017-Aug-12 05:00N 72°00' W 162°24'8 8.2 360 / 121006.7 2.0 0.4 4.3
2017-Aug-12 04:00N 71°54' W 162°06'8 8.2 030 / 111006.4 1.1 0.7 4.0
2017-Aug-12 03:00N 71°48' W 161°48'7 7.1 010 / 141006.0 1.3 0.5 4.4
2017-Aug-12 02:00N 71°42' W 161°36'6 6.3 350 / 151005.6 1.9-0.2 4.5
2017-Aug-12 01:00N 71°36' W 161°30'7 2.4 1005.7 0.7 4.8
2017-Aug-11 22:00N 71°30' W 161°18'2 1.9 350 / 121005.3 1.7-0.1 5.1
2017-Aug-11 21:00N 71°30' W 161°12'2 1.9 010 / 141004.9 1.5-0.0 5.2
2017-Aug-11 20:00N 71°30' W 161°06'6 6.0 340 / 151004.5 1.6 0.5 5.2
2017-Aug-11 19:00N 71°24' W 161°06'2 1.9 340 / 131003.8 1.3 0.1 5.2
2017-Aug-11 18:00N 71°24' W 161°00'2 1.9 340 / 131003.5 1.3-0.7 5.2
2017-Aug-11 17:00N 71°24' W 160°54'0 0.0 330 / 161002.9 1.6-0.2 5.2
2017-Aug-11 16:00N 71°24' W 160°54'6 6.3 010 / 161002.3 1.7 0.9 5.2
2017-Aug-11 15:00N 71°18' W 160°48'2 1.9 360 / 181001.8 1.2 1.0 5.4
2017-Aug-11 14:00N 71°18' W 160°42'2 1.9 350 / 181001.4 1.7 0.8 5.3
2017-Aug-11 13:00N 71°18' W 160°36'0 0.0 350 / 231000.8 1.3 1.1 5.4
2017-Aug-11 12:00N 71°18' W 160°36'6 6.3 350 / 201000.2 2.0 5.5
2017-Aug-11 11:00N 71°12' W 160°30'2 1.9 350 / 23999.2 2.5 5.6
2017-Aug-11 10:00N 71°12' W 160°24'0 0.0 360 / 22997.8 3.8 5.6
2017-Aug-11 09:00N 71°12' W 160°24'6 6.3 340 / 24996.5 4.5 5.6
2017-Aug-11 08:00N 71°06' W 160°18'2 1.9 270 / 17995.3 6.1 5.7
2017-Aug-11 07:00N 71°06' W 160°12'2 1.9 260 / 18994.8 6.8 5.8
2017-Aug-11 06:00N 71°06' W 160°06'6 6.0 230 / 26994.3 8.1 5.9
2017-Aug-11 05:00N 71°00' W 160°06'2 2.0 220 / 27994.5 8.5 5.9
2017-Aug-11 04:00N 71°00' W 160°00'2 2.0 210 / 26995.1 8.9 8.9 5.9
2017-Aug-11 03:00N 71°00' W 159°54'0 0.0 210 / 26996.1 9.1 8.6 6.1
2017-Aug-11 02:00N 71°00' W 159°54'6 5.9 210 / 22997.5 9.0 8.3 6.3
2017-Aug-11 01:00N 71°00' W 159°36'6 5.9 210 / 20998.5 8.5 7.0 6.1
2017-Aug-11 00:00N 71°00' W 159°18'8 8.4 210 / 18999.7 7.9 5.9 6.3
2017-Aug-10 23:00N 71°06' W 159°00'6 5.8 200 / 221000.8 7.3 4.9 7.0
2017-Aug-10 22:00N 71°06' W 158°42'6 5.8 210 / 201002.2 6.7 5.0 7.5
2017-Aug-10 21:00N 71°06' W 158°24'8 8.4 210 / 201002.6 6.2 4.8 7.4
2017-Aug-10 20:00N 71°12' W 158°06'8 7.7 190 / 211003.1 6.1 4.6 7.1
2017-Aug-10 19:00N 71°12' W 157°42'8 7.7 210 / 161004.8 5.9 4.7 6.0
2017-Aug-10 18:00N 71°12' W 157°18'6 6.3 190 / 81005.7 5.7 4.3 6.1
2017-Aug-10 17:00N 71°18' W 157°12'0 0.0 230 / 71006.4 5.4 3.8 8.1
2017-Aug-10 16:00N 71°18' W 157°12'2 1.9 270 / 91007.1 5.0 3.8 8.1
2017-Aug-10 15:00N 71°18' W 157°18'0 0.0 260 / 101007.6 4.7 3.8 5.4
2017-Aug-10 14:00N 71°18' W 157°18'6 6.3 260 / 121008.0 4.5 3.5 5.4
2017-Aug-10 13:00N 71°24' W 157°24'0 0.0 260 / 151008.6 4.4 3.2 5.0
2017-Aug-10 12:00N 71°24' W 157°24'2 1.9 260 / 171009.2 4.3 3.1 5.1
2017-Aug-10 11:00N 71°24' W 157°30'6 6.3 250 / 171009.5 4.1 3.4 4.9
2017-Aug-10 10:00N 71°30' W 157°36'2 1.9 260 / 181009.7 3.9 2.9 5.0
2017-Aug-10 09:00N 71°30' W 157°42'2 1.9 260 / 151010.4 3.7 2.8 5.0
2017-Aug-10 08:00N 71°30' W 157°48'6 6.0 280 / 161010.5 3.7 1.8 4.9
2017-Aug-10 07:00N 71°36' W 157°48'0 0.0 270 / 181010.5 3.2 2.1 4.8
2017-Aug-10 06:00N 71°36' W 157°48'0 0.0 260 / 201010.8 3.1 2.4 4.8
2017-Aug-10 05:00N 71°36' W 157°48'0 0.0 270 / 161011.0 3.2 2.3 4.8
2017-Aug-10 04:00N 71°36' W 157°48'6 6.3 270 / 181011.0 3.2 0.3 5.0
2017-Aug-10 03:00N 71°30' W 157°42'   260 / 161011.0 3.2 0.9 4.9

Dump ship's entire track history